Time;durP1;ratioP1;P1;durP2;ratioP2;P2;SDS_P1;SDS_P2;PMS_P1;PMS_P2;Temp;Humidity;BMP_temperature;BMP_pressure;BME280_temperature;BME280_humidity;BME280_pressure;Samples;Min_cycle;Max_cycle;Signal;HPM_P1;HPM_P2
2021/10/19 00:00:04;;;;;;;3.07;1.87;;;;;;;-145.69;100.00;72843.31;5076343;28;20199;-77
2021/10/19 00:02:31;;;;;;;2.93;2.00;;;;;;;-145.69;100.00;72843.31;5079444;28;20225;-76
2021/10/19 00:05:01;;;;;;;5.83;2.37;;;;;;;-145.69;100.00;72851.28;5096206;28;20285;-76
2021/10/19 00:07:27;;;;;;;2.87;1.67;;;;;;;-145.69;100.00;72847.28;5096563;28;20259;-76
2021/10/19 00:09:54;;;;;;;2.10;1.90;;;;;;;-145.69;100.00;72855.25;5096418;28;20544;-76
2021/10/19 00:12:22;;;;;;;3.60;1.90;;;;;;;-145.69;100.00;72823.41;5096382;28;20202;-76
2021/10/19 00:14:48;;;;;;;3.33;2.00;;;;;;;-145.69;100.00;72785.59;5096342;28;20206;-76
2021/10/19 00:17:15;;;;;;;5.47;1.50;;;;;;;-145.69;100.00;72801.50;5096091;28;20198;-76
2021/10/19 00:19:45;;;;;;;8.03;1.97;;;;;;;-145.69;100.00;72799.53;5096013;28;20715;-76
2021/10/19 00:22:12;;;;;;;3.60;2.37;;;;;;;-145.69;100.00;72787.56;5096151;28;20327;-77
2021/10/19 00:24:38;;;;;;;3.47;2.20;;;;;;;-145.69;100.00;72821.41;5096145;28;20226;-77
2021/10/19 00:27:05;;;;;;;4.77;1.90;;;;;;;-145.69;100.00;72823.41;5095966;28;20652;-75
2021/10/19 00:29:34;;;;;;;3.07;1.80;;;;;;;-145.69;100.00;72783.59;5095943;28;20233;-76
2021/10/19 00:32:00;;;;;;;3.40;1.70;;;;;;;-145.69;100.00;72743.78;5095714;28;20281;-76
2021/10/19 00:34:27;;;;;;;6.07;1.83;;;;;;;-145.69;100.00;72733.84;5095627;28;20291;-75
2021/10/19 00:36:53;;;;;;;2.30;1.80;;;;;;;-145.69;100.00;72721.88;5095742;28;20209;-75
2021/10/19 00:39:20;;;;;;;2.50;1.83;;;;;;;-145.69;100.00;72729.84;5095450;28;20202;-76
2021/10/19 00:41:47;;;;;;;2.30;1.60;;;;;;;-145.69;100.00;72743.78;5095415;28;20233;-76
2021/10/19 00:44:13;;;;;;;1.63;1.30;;;;;;;-145.69;100.00;72773.66;5095545;28;20289;-76
2021/10/19 00:46:43;;;;;;;5.43;1.47;;;;;;;-145.69;100.00;72789.56;5095508;28;20202;-76
2021/10/19 00:49:10;;;;;;;2.27;1.67;;;;;;;-145.69;100.00;72779.63;5095468;28;20198;-76
2021/10/19 00:51:37;;;;;;;2.33;1.90;;;;;;;-145.69;100.00;72797.53;5095297;28;20198;-76
2021/10/19 00:54:04;;;;;;;4.57;1.73;;;;;;;-145.69;100.00;72795.53;5095610;28;20205;-76
2021/10/19 00:56:31;;;;;;;3.33;1.95;;;;;;;-145.69;100.00;72777.63;5094629;28;20845;-76
2021/10/19 00:58:57;;;;;;;2.93;1.60;;;;;;;-145.69;100.00;72771.66;5095392;28;20284;-76
2021/10/19 01:01:25;;;;;;;6.37;2.00;;;;;;;-145.69;100.00;72765.69;5095011;28;20696;-76
2021/10/19 01:03:52;;;;;;;2.17;1.60;;;;;;;-145.69;100.00;72765.69;5095460;28;20293;-76
2021/10/19 01:06:20;;;;;;;5.27;1.60;;;;;;;-145.69;100.00;72755.72;5095026;28;20194;-76
2021/10/19 01:08:47;;;;;;;7.10;1.70;;;;;;;-145.69;100.00;72743.78;5095217;28;20198;-76
2021/10/19 01:11:13;;;;;;;5.10;1.53;;;;;;;-145.69;100.00;72727.88;5095064;28;20296;-76
2021/10/19 01:13:39;;;;;;;3.13;1.40;;;;;;;-145.69;100.00;72715.91;5094940;28;20198;-76
2021/10/19 01:16:08;;;;;;;2.30;1.70;;;;;;;-145.69;100.00;72715.91;5095298;28;20275;-76
2021/10/19 01:18:35;;;;;;;5.73;1.67;;;;;;;-145.69;100.00;72701.97;5095099;28;20198;-76
2021/10/19 01:21:04;;;;;;;7.20;1.93;;;;;;;-145.69;100.00;72682.09;5074146;28;20708;-76
2021/10/19 01:23:32;;;;;;;1.80;1.40;;;;;;;-145.69;100.00;72672.13;5073984;28;20206;-76
2021/10/19 01:26:00;;;;;;;3.83;1.40;;;;;;;-145.69;100.00;72648.25;5074478;28;20206;-76
2021/10/19 01:28:26;;;;;;;2.53;1.43;;;;;;;-145.69;100.00;72628.34;5074252;28;20256;-76
2021/10/19 01:30:54;;;;;;;3.97;1.60;;;;;;;-145.69;100.00;72614.41;5074424;28;20199;-77
2021/10/19 01:33:21;;;;;;;1.40;1.10;;;;;;;-145.69;100.00;72596.50;5074217;28;20206;-77
2021/10/19 01:35:48;;;;;;;2.20;1.60;;;;;;;-145.69;100.00;72570.63;5073964;28;20604;-77
2021/10/19 01:38:17;;;;;;;2.53;1.47;;;;;;;-145.69;97.78;72532.78;5074260;28;20677;-76
2021/10/19 01:40:45;;;;;;;1.80;1.20;;;;;;;-145.69;100.00;72546.72;5073263;28;20198;-76
2021/10/19 01:43:12;;;;;;;2.97;1.20;;;;;;;-145.69;100.00;72560.66;5074576;28;20202;-76
2021/10/19 01:45:39;;;;;;;1.63;1.10;;;;;;;-145.69;100.00;72572.59;5074406;28;20194;-76
2021/10/19 01:48:06;;;;;;;4.53;1.57;;;;;;;-145.69;95.54;72538.78;5074246;28;20205;-78
2021/10/19 01:50:33;;;;;;;1.53;0.90;;;;;;;-145.69;100.00;72532.78;5074170;28;20341;-76
2021/10/19 01:53:00;;;;;;;1.30;1.20;;;;;;;-145.69;97.70;72534.78;5073971;28;20198;-77
2021/10/19 01:55:28;;;;;;;3.20;1.37;;;;;;;-145.69;98.40;72534.78;5073664;28;20202;-76
2021/10/19 01:57:54;;;;;;;2.13;1.20;;;;;;;-145.69;98.86;72524.84;5073774;28;20209;-77
2021/10/19 02:00:21;;;;;;;2.50;1.20;;;;;;;-145.69;96.83;72500.94;5074058;28;20199;-76
2021/10/19 02:02:47;;;;;;;1.70;1.20;;;;;;;-145.69;98.07;72504.94;5073757;28;20223;-76
2021/10/19 02:05:14;;;;;;;4.27;1.37;;;;;;;-145.69;97.53;72498.97;5073721;28;20248;-77
2021/10/19 02:07:40;;;;;;;2.73;1.47;;;;;;;-145.69;96.44;72493.00;5073957;28;20228;-76
2021/10/19 02:10:09;;;;;;;1.80;1.30;;;;;;;-145.69;95.54;72498.97;5073500;28;20760;-77
2021/10/19 02:12:37;;;;;;;4.50;1.23;;;;;;;-145.69;95.55;72491.00;5073611;28;20199;-76
2021/10/19 02:15:05;;;;;;;1.40;1.20;;;;;;;-145.69;99.44;72489.00;5073774;28;20202;-76
2021/10/19 02:17:31;;;;;;;3.07;1.30;;;;;;;-145.69;98.86;72496.97;5073305;28;20202;-76
2021/10/19 02:20:00;;;;;;;1.87;1.37;;;;;;;-145.69;99.79;72493.00;5074152;28;20203;-76
2021/10/19 02:22:27;;;;;;;3.60;1.20;;;;;;;-145.69;100.00;72500.94;5072976;28;20232;-76
2021/10/19 02:24:53;;;;;;;1.80;1.33;;;;;;;-145.69;100.00;72504.94;5073718;28;20206;-77
2021/10/19 02:27:19;;;;;;;1.97;1.53;;;;;;;-145.69;100.00;72502.94;5073259;28;20248;-76
2021/10/19 02:29:54;;;;;;;1.53;1.27;;;;;;;-145.69;100.00;72508.91;5073322;28;20206;-76
2021/10/19 02:32:20;;;;;;;2.97;1.30;;;;;;;-145.69;96.32;72481.03;5073387;28;20224;-76
2021/10/19 02:34:50;;;;;;;2.13;1.27;;;;;;;-145.69;95.74;72481.03;5073092;28;20237;-77
2021/10/19 02:37:19;;;;;;;3.80;1.40;;;;;;;-145.69;97.07;72477.06;5073050;28;20255;-77
2021/10/19 02:39:45;;;;;;;3.73;1.50;;;;;;;-145.69;97.42;72477.06;5073302;28;20534;-77
2021/10/19 02:42:12;;;;;;;2.30;1.30;;;;;;;-145.69;94.69;72465.13;5072808;28;20462;-77
2021/10/19 02:44:39;;;;;;;2.23;1.23;;;;;;;-145.69;96.31;72453.19;5073186;28;20207;-77
2021/10/19 02:47:08;;;;;;;3.03;1.40;;;;;;;-145.69;99.68;72461.13;5073138;28;20205;-76
2021/10/19 02:49:34;;;;;;;2.57;1.17;;;;;;;-145.69;99.18;72469.09;5073076;28;20660;-77
2021/10/19 02:52:01;;;;;;;4.03;1.57;;;;;;;-145.69;98.34;72457.16;5072390;28;20608;-76
2021/10/19 02:54:30;;;;;;;2.60;1.60;;;;;;;-145.69;99.08;72429.28;5073282;28;20604;-76
2021/10/19 02:57:02;;;;;;;3.63;1.70;;;;;;;-145.69;98.36;72445.22;5072926;28;20202;-77
2021/10/19 02:59:29;;;;;;;4.00;1.17;;;;;;;-145.69;97.42;72437.25;5072980;28;20195;-76
2021/10/19 03:01:55;;;;;;;2.00;1.30;;;;;;;-145.69;93.25;72415.38;5072346;28;20222;-76
2021/10/19 03:04:29;;;;;;;4.50;1.27;;;;;;;-145.69;93.83;72409.38;5073049;28;20202;-77
2021/10/19 03:06:57;;;;;;;3.27;1.70;;;;;;;-145.69;98.40;72409.38;5073016;28;20547;-76
2021/10/19 03:09:23;;;;;;;2.13;1.23;;;;;;;-145.69;94.76;72409.38;5072867;28;20207;-77
2021/10/19 03:11:50;;;;;;;2.60;1.70;;;;;;;-145.69;95.19;72399.44;5075236;28;20209;-76
2021/10/19 03:14:16;;;;;;;3.60;1.47;;;;;;;-145.69;92.27;72397.44;5072769;28;20627;-76
2021/10/19 03:16:43;;;;;;;2.37;1.47;;;;;;;-145.69;95.38;72399.44;5072555;28;20657;-76
2021/10/19 03:19:09;;;;;;;2.53;1.50;;;;;;;-145.69;97.34;72415.38;5072892;28;20589;-77
2021/10/19 03:21:37;;;;;;;2.43;1.40;;;;;;;-145.69;95.12;72409.38;5072512;28;20206;-76
2021/10/19 03:24:04;;;;;;;3.27;1.77;;;;;;;-145.69;96.53;72417.34;5072762;28;20199;-76
2021/10/19 03:26:31;;;;;;;1.80;1.33;;;;;;;-145.69;98.01;72425.31;5072901;28;20202;-77
2021/10/19 03:28:57;;;;;;;2.40;1.50;;;;;;;-145.69;96.59;72439.25;5072490;28;20202;-77
2021/10/19 03:31:24;;;;;;;2.23;1.50;;;;;;;-145.69;98.96;72447.22;5072270;28;20202;-76
2021/10/19 03:33:50;;;;;;;1.80;1.43;;;;;;;-145.69;96.31;72443.22;5072736;28;20280;-76
2021/10/19 03:36:20;;;;;;;1.93;1.40;;;;;;;-145.69;96.17;72447.22;5072496;28;20557;-77
2021/10/19 03:38:47;;;;;;;4.97;1.40;;;;;;;-145.69;97.24;72449.19;5071825;28;20704;-77
2021/10/19 03:41:14;;;;;;;5.83;1.67;;;;;;;-145.69;97.23;72445.22;5072654;28;20210;-76
2021/10/19 03:43:40;;;;;;;2.90;1.70;;;;;;;-145.69;95.83;72437.25;5072221;28;20276;-77
2021/10/19 03:46:07;;;;;;;3.03;1.60;;;;;;;-145.69;97.68;72445.22;5072528;28;20564;-77
2021/10/19 03:48:36;;;;;;;3.50;1.90;;;;;;;-145.69;99.32;72455.16;5072334;28;20661;-77
2021/10/19 03:51:02;;;;;;;6.20;1.93;;;;;;;-145.69;99.66;72449.19;5072434;28;20203;-77
2021/10/19 03:53:29;;;;;;;2.07;1.37;;;;;;;-145.69;99.27;72453.19;5072486;28;20301;-77
2021/10/19 03:55:57;;;;;;;4.10;1.40;;;;;;;-145.69;99.52;72451.19;5072358;28;20206;-77
2021/10/19 03:58:23;;;;;;;2.87;1.60;;;;;;;-145.69;100.00;72461.13;5072158;28;20281;-77
2021/10/19 04:00:50;;;;;;;3.33;1.60;;;;;;;-145.69;100.00;72461.13;5072303;28;20679;-77
2021/10/19 04:03:16;;;;;;;4.97;1.30;;;;;;;-145.69;100.00;72441.25;5074066;28;20667;-76
2021/10/19 04:05:43;;;;;;;2.70;1.67;;;;;;;-145.69;100.00;72455.16;5076086;28;20199;-76
2021/10/19 04:08:09;;;;;;;2.37;1.60;;;;;;;-145.69;100.00;72461.13;5075995;28;20225;-77
2021/10/19 04:10:36;;;;;;;5.03;1.70;;;;;;;-145.69;100.00;72457.16;5075601;28;20664;-76
2021/10/19 04:13:04;;;;;;;2.63;1.50;;;;;;;-145.69;99.08;72449.19;5076016;28;20206;-76
2021/10/19 04:15:31;;;;;;;2.20;1.67;;;;;;;-145.69;100.00;72433.28;5075932;28;20202;-76
2021/10/19 04:17:57;;;;;;;2.23;1.40;;;;;;;-145.69;100.00;72447.22;5076063;28;20203;-76
2021/10/19 04:20:23;;;;;;;1.90;1.50;;;;;;;-145.69;100.00;72449.19;5075885;28;20210;-76
2021/10/19 04:22:50;;;;;;;7.57;1.93;;;;;;;-145.69;100.00;72463.13;5075905;28;20230;-76
2021/10/19 04:25:16;;;;;;;3.23;1.47;;;;;;;-145.69;100.00;72453.19;5075565;28;20199;-76
2021/10/19 04:27:43;;;;;;;7.90;2.77;;;;;;;-145.69;100.00;72445.22;5075681;28;20249;-77
2021/10/19 04:30:11;;;;;;;9.37;1.77;;;;;;;-145.69;100.00;72451.19;5075713;28;20198;-76
2021/10/19 04:32:38;;;;;;;3.93;1.70;;;;;;;-145.69;100.00;72461.13;5075678;28;20199;-76
2021/10/19 04:35:05;;;;;;;5.10;1.80;;;;;;;-145.69;100.00;72451.19;5075563;28;20239;-76
2021/10/19 04:37:31;;;;;;;3.67;1.87;;;;;;;-145.69;100.00;72457.16;5075520;28;20199;-77
2021/10/19 04:39:58;;;;;;;5.93;2.00;;;;;;;-145.69;100.00;72441.25;5075448;28;20198;-76
2021/10/19 04:42:27;;;;;;;4.63;2.13;;;;;;;-145.69;100.00;72441.25;5075279;28;20693;-76
2021/10/19 04:44:53;;;;;;;5.27;1.90;;;;;;;-145.69;100.00;72445.22;5075543;28;20199;-76
2021/10/19 04:47:22;;;;;;;4.70;1.80;;;;;;;-145.69;100.00;72453.19;5075526;28;20199;-76
2021/10/19 04:49:48;;;;;;;5.43;1.80;;;;;;;-145.69;100.00;72449.19;5075064;28;20199;-76
2021/10/19 04:52:14;;;;;;;4.07;1.70;;;;;;;-145.69;100.00;72445.22;5075344;28;20199;-76
2021/10/19 04:54:41;;;;;;;6.47;1.80;;;;;;;-145.69;100.00;72453.19;5075399;28;20194;-76
2021/10/19 04:57:07;;;;;;;4.70;1.80;;;;;;;-145.69;100.00;72443.22;5075287;28;20199;-76
2021/10/19 04:59:34;;;;;;;3.27;1.70;;;;;;;-145.69;100.00;72429.28;5075045;28;20662;-75
2021/10/19 05:02:00;;;;;;;6.77;2.13;;;;;;;-145.69;100.00;72441.25;5075029;28;20198;-77
2021/10/19 05:04:28;;;;;;;3.27;1.80;;;;;;;-145.69;100.00;72429.28;5075183;28;20244;-76
2021/10/19 05:06:54;;;;;;;4.90;1.97;;;;;;;-145.69;100.00;72435.28;5074946;28;20645;-78
2021/10/19 05:09:21;;;;;;;5.33;1.80;;;;;;;-145.69;100.00;72429.28;5074847;28;20207;-76
2021/10/19 05:11:47;;;;;;;4.37;2.07;;;;;;;-145.69;100.00;72429.28;5074877;28;20203;-77
2021/10/19 05:14:13;;;;;;;2.80;1.80;;;;;;;-145.69;100.00;72443.22;5073987;28;20613;-75
2021/10/19 05:16:42;;;;;;;3.53;1.87;;;;;;;-145.69;100.00;72461.13;5074787;28;20207;-76
2021/10/19 05:19:08;;;;;;;4.93;1.93;;;;;;;-145.69;100.00;72471.09;5076244;28;20311;-76
2021/10/19 05:21:36;;;;;;;3.70;1.60;;;;;;;-145.69;100.00;72477.06;5094942;28;20198;-76
2021/10/19 05:24:03;;;;;;;3.13;1.50;;;;;;;-145.69;100.00;72481.03;5094543;28;20225;-76
2021/10/19 05:26:38;;;;;;;3.47;1.33;;;;;;;-145.69;100.00;72429.28;5094741;28;20206;-76
2021/10/19 05:29:05;;;;;;;6.50;1.77;;;;;;;-145.69;100.00;72415.38;5094847;28;20284;-78
2021/10/19 05:31:31;;;;;;;2.87;1.63;;;;;;;-145.69;98.86;72397.44;5094678;28;20595;-76
2021/10/19 05:34:10;;;;;;;4.07;1.63;;;;;;;-145.69;99.10;72389.50;5094255;28;20237;-76
2021/10/19 05:36:38;;;;;;;4.43;2.03;;;;;;;-145.69;100.00;72377.53;5094584;28;20284;-76
2021/10/19 05:39:06;;;;;;;4.27;1.73;;;;;;;-145.69;100.00;72389.50;5094639;28;20202;-77
2021/10/19 05:41:32;;;;;;;3.00;1.80;;;;;;;-145.69;100.00;72385.50;5094379;28;20683;-76
2021/10/19 05:43:59;;;;;;;3.83;2.00;;;;;;;-145.69;100.00;72385.50;5094169;28;20684;-76
2021/10/19 05:46:27;;;;;;;2.80;1.80;;;;;;;-145.69;100.00;72407.41;5094402;28;20205;-78
2021/10/19 05:48:54;;;;;;;8.63;1.73;;;;;;;-145.69;100.00;72401.44;5094172;28;20198;-78
2021/10/19 05:51:21;;;;;;;4.17;1.67;;;;;;;-145.69;100.00;72365.59;5094412;28;20280;-79
2021/10/19 05:53:54;;;;;;;4.70;1.70;;;;;;;-145.69;100.00;72377.53;5094258;28;20244;-78
2021/10/19 05:56:21;;;;;;;2.40;1.60;;;;;;;-145.69;100.00;72385.50;5094185;28;20208;-78
2021/10/19 05:58:47;;;;;;;6.67;1.80;;;;;;;-145.69;100.00;72415.38;5094078;28;20209;-78
2021/10/19 06:01:19;;;;;;;4.23;1.60;;;;;;;-145.69;100.00;72433.28;5093862;28;20719;-77
2021/10/19 06:03:48;;;;;;;3.13;1.63;;;;;;;-145.69;100.00;72435.28;5094092;28;20231;-78
2021/10/19 06:06:17;;;;;;;4.73;2.00;;;;;;;-145.69;100.00;72439.25;5093752;28;20201;-78
2021/10/19 06:08:51;;;;;;;4.93;2.03;;;;;;;-145.69;100.00;72439.25;5093744;28;20678;-78
2021/10/19 06:11:21;;;;;;;3.60;1.60;;;;;;;-145.69;100.00;72427.31;5093995;28;20545;-78
2021/10/19 06:13:48;;;;;;;3.90;1.27;;;;;;;-145.69;100.00;72427.31;5094119;28;20204;-78
2021/10/19 06:16:14;;;;;;;3.13;1.70;;;;;;;-145.69;100.00;72415.38;5094003;28;20198;-78
2021/10/19 06:18:41;;;;;;;3.13;1.80;;;;;;;-145.69;100.00;72415.38;5093892;28;20198;-77
2021/10/19 06:21:09;;;;;;;2.60;1.63;;;;;;;-145.69;100.00;72405.41;5093906;28;20200;-77
2021/10/19 06:23:35;;;;;;;5.77;1.97;;;;;;;-145.69;100.00;72405.41;5093677;28;20222;-78
2021/10/19 06:26:06;;;;;;;6.43;1.97;;;;;;;-145.69;100.00;72411.38;5093460;28;20667;-78
2021/10/19 06:28:34;;;;;;;4.03;1.40;;;;;;;-145.69;100.00;72409.38;5093439;28;20186;-78
2021/10/19 06:31:01;;;;;;;9.83;1.70;;;;;;;-145.69;100.00;72391.47;5093768;28;20205;-78
2021/10/19 06:33:28;;;;;;;3.60;1.57;;;;;;;-145.69;100.00;72377.53;5093521;28;20194;-78
2021/10/19 06:35:55;;;;;;;2.80;1.70;;;;;;;-145.69;100.00;72377.53;5093702;28;20201;-79
2021/10/19 06:38:21;;;;;;;8.93;1.87;;;;;;;-145.69;100.00;72357.66;5093478;28;20202;-77
2021/10/19 06:40:48;;;;;;;7.60;1.93;;;;;;;-145.69;100.00;72363.63;5093449;28;20609;-77
2021/10/19 06:43:14;;;;;;;5.90;1.60;;;;;;;-145.69;100.00;72367.59;5093494;28;20230;-77
2021/10/19 06:45:44;;;;;;;2.67;1.80;;;;;;;-145.69;100.00;72359.63;5093493;28;20198;-77
2021/10/19 06:48:13;;;;;;;2.60;1.80;;;;;;;-145.69;100.00;72369.59;5093549;28;20198;-78
2021/10/19 06:50:43;;;;;;;5.57;1.80;;;;;;;-145.69;100.00;72357.66;5093299;28;20198;-78
2021/10/19 06:53:09;;;;;;;3.27;1.70;;;;;;;-145.69;100.00;72339.72;5093054;28;20592;-77
2021/10/19 06:55:36;;;;;;;5.83;1.73;;;;;;;-145.69;100.00;72327.78;5093704;28;20204;-77
2021/10/19 06:58:02;;;;;;;2.50;1.53;;;;;;;-145.69;100.00;72335.75;5093411;28;20206;-78
2021/10/19 07:00:29;;;;;;;2.90;1.67;;;;;;;-145.69;100.00;72341.72;5093166;28;20217;-77
2021/10/19 07:02:57;;;;;;;6.33;1.50;;;;;;;-145.69;100.00;72353.66;5093361;28;20634;-77
2021/10/19 07:05:23;;;;;;;2.17;1.33;;;;;;;-145.69;100.00;72339.72;5093086;28;20204;-77
2021/10/19 07:07:50;;;;;;;4.03;1.60;;;;;;;-145.69;100.00;72345.69;5092908;28;20660;-77
2021/10/19 07:10:19;;;;;;;4.20;1.73;;;;;;;-145.69;100.00;72345.69;5092897;28;20668;-77
2021/10/19 07:12:46;;;;;;;3.33;1.40;;;;;;;-145.69;100.00;72331.78;5089648;28;20285;-77
2021/10/19 07:15:15;;;;;;;2.40;1.30;;;;;;;-145.69;100.00;72297.94;5093122;28;20200;-76
2021/10/19 07:17:42;;;;;;;3.50;1.60;;;;;;;-145.69;100.00;72278.03;5092930;28;20198;-76
2021/10/19 07:20:16;;;;;;;4.40;1.97;;;;;;;-145.69;100.00;72278.03;5092889;28;20243;-77
2021/10/19 07:22:46;;;;;;;4.67;1.83;;;;;;;-145.69;100.00;72291.97;5093048;28;20189;-77
2021/10/19 07:25:13;;;;;;;4.73;1.77;;;;;;;-145.69;100.00;72301.91;5093027;28;20198;-77
2021/10/19 07:27:39;;;;;;;2.40;1.60;;;;;;;-145.69;100.00;72313.84;5092984;28;20227;-77
2021/10/19 07:30:09;;;;;;;2.77;1.43;;;;;;;-145.69;100.00;72317.84;5093009;28;20193;-77
2021/10/19 07:32:35;;;;;;;6.77;1.83;;;;;;;-145.69;100.00;72311.88;5092806;28;20255;-77
2021/10/19 07:35:04;;;;;;;2.67;1.60;;;;;;;-145.69;100.00;72297.94;5092984;28;20241;-77
2021/10/19 07:37:37;;;;;;;5.00;1.53;;;;;;;-145.69;100.00;72266.09;5093785;28;20198;-77
2021/10/19 07:40:05;;;;;;;4.77;1.33;;;;;;;-145.69;100.00;72266.09;5097090;28;20679;-77
2021/10/19 07:42:33;;;;;;;6.33;1.73;;;;;;;-145.69;100.00;72252.16;5097118;28;20201;-76
2021/10/19 07:45:10;;;;;;;2.63;1.40;;;;;;;-145.69;100.00;72240.22;5097331;28;20226;-77
2021/10/19 07:47:42;;;;;;;8.97;1.73;;;;;;;-145.69;100.00;72230.25;5095602;28;20636;-78
2021/10/19 07:50:10;;;;;;;3.47;1.60;;;;;;;-145.69;100.00;72252.16;5096740;28;20565;-78
2021/10/19 07:52:38;;;;;;;4.43;1.80;;;;;;;-145.69;100.00;72266.09;5096662;28;20293;-77
2021/10/19 07:55:05;;;;;;;3.30;1.70;;;;;;;-145.69;100.00;72254.16;5096507;28;20201;-77
2021/10/19 07:57:32;;;;;;;3.63;1.63;;;;;;;-145.69;100.00;72250.16;5096519;28;20193;-77
2021/10/19 08:00:00;;;;;;;4.33;1.80;;;;;;;-145.69;100.00;72242.22;5096424;28;20202;-77
2021/10/19 08:02:27;;;;;;;4.10;1.63;;;;;;;-145.69;100.00;72222.31;5096463;28;20210;-77
2021/10/19 08:04:53;;;;;;;2.20;1.40;;;;;;;-145.69;100.00;72184.50;5095373;28;20457;-77
2021/10/19 08:07:21;;;;;;;2.60;1.20;;;;;;;-145.69;95.36;72154.63;5096196;28;20205;-77
2021/10/19 08:09:49;;;;;;;2.03;1.20;;;;;;;-145.69;96.12;72142.69;5096303;28;20285;-77
2021/10/19 08:12:16;;;;;;;1.60;1.07;;;;;;;-145.69;98.98;72148.66;5096171;28;20569;-77
2021/10/19 08:14:43;;;;;;;2.37;1.23;;;;;;;-145.69;100.00;72170.56;5087404;28;20256;-77
2021/10/19 08:17:10;;;;;;;2.57;1.40;;;;;;;-145.69;100.00;72170.56;5075912;28;20229;-77
2021/10/19 08:19:36;;;;;;;6.38;1.58;;;;;;;-145.69;100.00;72162.59;5075667;28;20199;-77
2021/10/19 08:22:09;;;;;;;15.33;1.60;;;;;;;-145.69;100.00;72186.47;5075715;28;20203;-76
2021/10/19 08:24:35;;;;;;;2.35;1.20;;;;;;;-145.69;100.00;72204.38;5075506;28;20719;-76
2021/10/19 08:27:03;;;;;;;2.00;1.40;;;;;;;-145.69;100.00;72202.41;5083440;28;20213;-77
2021/10/19 08:29:29;;;;;;;3.63;1.17;;;;;;;-145.69;100.00;72192.44;5081022;28;20211;-77
2021/10/19 08:31:56;;;;;;;5.97;1.30;;;;;;;-145.69;100.00;72194.44;5094817;28;20201;-77
2021/10/19 08:34:22;;;;;;;2.15;1.38;;;;;;;-145.69;100.00;72194.44;5095150;28;20762;-78
2021/10/19 08:36:49;;;;;;;3.15;1.50;;;;;;;-145.69;100.00;72166.56;5095621;28;20255;-78
2021/10/19 08:39:15;;;;;;;1.95;1.27;;;;;;;-145.69;100.00;72150.66;5095664;28;20198;-78
2021/10/19 08:41:42;;;;;;;2.07;1.73;;;;;;;-145.69;100.00;72130.75;5095761;28;20201;-78
2021/10/19 08:44:09;;;;;;;3.17;1.90;;;;;;;-145.69;100.00;72094.94;5095697;28;20296;-77
2021/10/19 08:46:36;;;;;;;5.30;1.90;;;;;;;-145.69;100.00;72086.97;5095411;28;20202;-77
2021/10/19 08:49:03;;;;;;;5.68;1.90;;;;;;;-145.69;100.00;72053.13;5094312;28;20597;-77
2021/10/19 08:51:30;;;;;;;3.05;1.42;;;;;;;-145.69;100.00;72079.00;5095287;28;20243;-76
2021/10/19 08:53:56;;;;;;;3.92;1.70;;;;;;;-145.69;100.00;72057.13;5096376;28;20194;-77
2021/10/19 08:56:23;;;;;;;2.00;1.33;;;;;;;-145.69;100.00;72047.16;5095451;28;20549;-77
2021/10/19 08:58:58;;;;;;;2.95;1.42;;;;;;;-145.69;100.00;72045.16;5095498;28;20202;-78
2021/10/19 09:01:33;;;;;;;3.05;1.60;;;;;;;-145.69;100.00;72017.31;5095325;28;20280;-77
2021/10/19 09:03:59;;;;;;;3.65;1.30;;;;;;;-145.69;100.00;72003.38;5095207;28;20431;-77
2021/10/19 09:06:32;;;;;;;5.60;1.38;;;;;;;-145.69;100.00;72027.25;5094894;28;20201;-77
2021/10/19 09:09:04;;;;;;;1.73;1.35;;;;;;;-145.69;100.00;72001.38;5091958;28;20290;-77
2021/10/19 09:11:37;;;;;;;3.22;1.48;;;;;;;-145.69;100.00;71989.44;5095231;28;20201;-77
2021/10/19 09:14:04;;;;;;;2.47;1.58;;;;;;;-145.69;100.00;71995.41;5095112;28;20210;-77
2021/10/19 09:16:41;;;;;;;3.70;1.38;;;;;;;-145.69;100.00;71975.50;5095035;28;20620;-77
2021/10/19 09:19:08;;;;;;;2.38;1.65;;;;;;;-145.69;100.00;71939.69;5094816;28;20213;-77
2021/10/19 09:21:38;;;;;;;2.15;1.35;;;;;;;-145.69;100.00;71909.84;5095187;28;20197;-77
2021/10/19 09:24:18;;;;;;;3.47;1.60;;;;;;;-145.69;96.12;71870.03;5094877;28;20233;-77
2021/10/19 09:27:07;;;;;;;4.35;1.23;;;;;;;-145.69;93.65;71856.09;5094443;28;20198;-76
2021/10/19 09:29:36;;;;;;;3.72;1.60;;;;;;;-145.69;91.18;71832.22;5088562;28;20671;-77
2021/10/19 09:32:06;;;;;;;3.72;1.70;;;;;;;-145.69;84.65;71852.13;5094802;28;20201;-76
2021/10/19 09:34:34;;;;;;;1.55;1.40;;;;;;;-145.69;83.36;71866.06;5094583;28;20340;-77
2021/10/19 09:37:07;;;;;;;4.25;1.50;;;;;;;-145.69;87.87;71862.06;5094456;28;20610;-77
2021/10/19 09:39:36;;;;;;;7.53;1.70;;;;;;;-145.69;91.39;71883.97;5094648;28;20209;-77
2021/10/19 09:42:07;;;;;;;3.45;1.50;;;;;;;-145.69;88.23;71860.09;5094262;28;20198;-77
2021/10/19 09:44:35;;;;;;;2.53;1.33;;;;;;;-145.69;89.05;71870.03;5094518;28;20279;-76
2021/10/19 09:47:04;;;;;;;2.30;1.52;;;;;;;-145.69;92.02;71868.06;5094062;28;20657;-77
2021/10/19 09:49:32;;;;;;;2.17;1.50;;;;;;;-145.69;90.78;71860.09;5094201;28;20208;-77
2021/10/19 09:52:00;;;;;;;2.58;1.55;;;;;;;-145.69;89.67;71870.03;5093942;28;20568;-78
2021/10/19 09:54:29;;;;;;;3.70;1.38;;;;;;;-145.69;91.45;71872.03;5094323;28;20257;-77
2021/10/19 09:56:58;;;;;;;2.30;1.33;;;;;;;-145.69;91.41;71858.09;5093946;28;20202;-78
2021/10/19 09:59:25;;;;;;;2.83;1.90;;;;;;;-145.69;89.87;71876.00;5094157;28;20285;-78
2021/10/19 10:01:52;;;;;;;3.95;1.60;;;;;;;-145.69;91.45;71864.06;5093727;28;20198;-77
2021/10/19 10:04:21;;;;;;;3.30;1.95;;;;;;;-145.69;87.35;71836.22;5093989;28;20233;-78
2021/10/19 10:06:49;;;;;;;4.78;1.90;;;;;;;-145.69;91.40;71824.25;5093902;28;20296;-78
2021/10/19 10:09:16;;;;;;;6.43;1.70;;;;;;;-145.69;91.60;71838.19;5093615;28;20645;-76
2021/10/19 10:11:43;;;;;;;3.22;1.60;;;;;;;-145.69;91.98;71820.28;5093889;28;20202;-77
2021/10/19 10:14:14;;;;;;;4.05;1.55;;;;;;;-145.69;90.27;71858.09;5093927;28;20202;-77
2021/10/19 10:16:45;;;;;;;2.45;1.73;;;;;;;-145.69;91.42;71876.00;5093894;28;20293;-77
2021/10/19 10:19:13;;;;;;;2.22;1.60;;;;;;;-145.69;92.71;71862.06;5093783;28;20247;-78
2021/10/19 10:21:48;;;;;;;2.75;1.58;;;;;;;-145.69;92.11;71834.22;5093909;28;20202;-79
2021/10/19 10:24:15;;;;;;;5.03;2.03;;;;;;;-145.69;95.32;71876.00;5093703;28;20225;-78
2021/10/19 10:26:45;;;;;;;6.43;1.83;;;;;;;-145.69;97.40;71860.09;5093662;28;20198;-78
2021/10/19 10:29:13;;;;;;;3.33;1.80;;;;;;;-145.69;96.24;71881.97;5093701;28;20305;-78
2021/10/19 10:31:48;;;;;;;2.33;1.48;;;;;;;-145.69;94.93;71876.00;5093546;28;20565;-78
2021/10/19 10:34:15;;;;;;;3.38;1.75;;;;;;;-145.69;86.77;71860.09;5092262;28;20517;-77
2021/10/19 10:36:45;;;;;;;3.08;1.55;;;;;;;-145.69;88.60;71852.13;5093486;28;20201;-76
2021/10/19 10:39:18;;;;;;;4.32;1.50;;;;;;;-145.69;82.99;71826.25;5093294;28;20194;-77
2021/10/19 10:41:46;;;;;;;2.78;1.80;;;;;;;-145.69;78.13;71840.19;5093540;28;20278;-76
2021/10/19 10:44:22;;;;;;;3.67;1.48;;;;;;;-145.69;80.00;71858.09;5092663;28;20218;-76
2021/10/19 10:46:49;;;;;;;3.58;1.67;;;;;;;-145.69;83.73;71880.00;5093216;28;20334;-77
2021/10/19 10:49:16;;;;;;;3.08;1.70;;;;;;;-145.69;82.08;71876.00;5093291;28;20603;-77
2021/10/19 10:51:44;;;;;;;3.17;1.52;;;;;;;-145.69;79.07;71852.13;5093257;28;20212;-78
2021/10/19 10:54:15;;;;;;;1.92;1.30;;;;;;;-145.69;77.25;71840.19;5093343;28;20228;-76
2021/10/19 10:56:46;;;;;;;5.60;1.60;;;;;;;-145.69;81.50;71840.19;5093271;28;20564;-78
2021/10/19 11:02:35;;;;;;;3.30;1.63;;;;;;;-145.69;82.66;71820.28;5093160;28;20198;-78
2021/10/19 11:05:01;;;;;;;3.05;1.58;;;;;;;-145.69;82.07;71824.25;5092939;28;20630;-78
2021/10/19 11:07:29;;;;;;;9.20;2.40;;;;;;;-145.69;78.32;71800.38;5092896;28;20202;-78
2021/10/19 11:09:57;;;;;;;3.63;2.00;;;;;;;-145.69;81.55;71772.53;5093223;28;20282;-78
2021/10/19 11:12:24;;;;;;;2.33;1.55;;;;;;;-145.69;86.61;71770.53;5092333;28;20244;-78
2021/10/19 11:14:50;;;;;;;2.25;1.60;;;;;;;-145.69;73.98;71758.59;5092807;28;20202;-78
2021/10/19 11:17:18;;;;;;;2.67;1.60;;;;;;;-145.69;78.98;71736.72;5089520;28;20209;-77